Time;durP1;ratioP1;P1;durP2;ratioP2;P2;SDS_P1;SDS_P2;PMS_P1;PMS_P2;Temp;Humidity;BMP_temperature;BMP_pressure;BME280_temperature;BME280_humidity;BME280_pressure;Samples;Min_cycle;Max_cycle;Signal;HPM_P1;HPM_P2
2023/10/09 00:01:17;;;;;;;0.50;0.50;;;;;;;15.48;59.21;97460.56;29395;228;63009;-56
2023/10/09 00:01:48;;;;;;;0.50;0.50;;;;;;;15.46;59.28;97457.34;29395;202;63004;-56
2023/10/09 00:02:19;;;;;;;0.50;0.50;;;;;;;15.46;59.46;97451.06;29395;209;63009;-57
2023/10/09 00:02:51;;;;;;;0.50;0.50;;;;;;;15.46;59.73;97451.88;29395;209;63004;-57
2023/10/09 00:03:23;;;;;;;0.40;0.40;;;;;;;15.46;59.57;97456.53;29395;225;63007;-56
2023/10/09 00:03:55;;;;;;;0.40;0.40;;;;;;;15.46;59.81;97456.53;29395;207;63005;-58
2023/10/09 00:04:28;;;;;;;0.43;0.43;;;;;;;15.45;59.53;97454.91;29395;238;63014;-57
2023/10/09 00:05:02;;;;;;;0.50;0.50;;;;;;;15.44;59.50;97454.13;29394;209;64009;-57
2023/10/09 00:05:47;;;;;;;0.50;0.50;;;;;;;15.43;59.60;97453.31;29394;224;64013;-57
2023/10/09 00:06:30;;;;;;;0.50;0.50;;;;;;;15.45;59.53;97446.72;29395;217;63005;-57
2023/10/09 00:07:02;;;;;;;0.50;0.50;;;;;;;15.46;59.58;97459.28;29395;316;63009;-56
2023/10/09 00:07:34;;;;;;;0.40;0.40;;;;;;;15.46;59.78;97448.34;29395;222;63004;-57
2023/10/09 00:08:08;;;;;;;0.40;0.40;;;;;;;15.46;59.66;97446.41;29395;203;63009;-56
2023/10/09 00:08:44;;;;;;;0.50;0.50;;;;;;;15.47;59.61;97450.75;29395;256;63004;-56
2023/10/09 00:10:12;;;;;;;0.50;0.50;;;;;;;15.51;59.30;97449.03;29395;255;63004;-57
2023/10/09 00:10:53;;;;;;;0.50;0.50;;;;;;;15.54;59.34;97447.59;29394;212;64013;-56
2023/10/09 00:11:29;;;;;;;0.40;0.40;;;;;;;15.56;59.23;97439.87;29416;226;64009;-56
2023/10/09 00:12:01;;;;;;;0.50;0.50;;;;;;;15.57;58.38;97436.88;29395;250;63009;-56
2023/10/09 00:12:32;;;;;;;0.43;0.43;;;;;;;15.59;58.74;97442.03;29395;236;63005;-57
2023/10/09 00:13:04;;;;;;;0.50;0.50;;;;;;;15.63;58.78;97445.72;29394;208;64013;-56
2023/10/09 00:13:37;;;;;;;0.50;0.50;;;;;;;15.65;58.56;97443.50;29395;301;63005;-56
2023/10/09 00:14:08;;;;;;;0.50;0.50;;;;;;;15.66;58.35;97437.72;29394;305;64013;-56
2023/10/09 00:14:40;;;;;;;0.50;0.50;;;;;;;15.68;58.48;97440.94;29395;205;63004;-57
2023/10/09 00:15:12;;;;;;;0.50;0.50;;;;;;;15.69;58.78;97445.31;29395;279;63009;-56
2023/10/09 00:15:45;;;;;;;0.50;0.50;;;;;;;15.72;58.55;97438.41;29395;290;63004;-56
2023/10/09 00:16:32;;;;;;;0.50;0.50;;;;;;;15.74;57.98;97439.69;29395;228;63009;-57
2023/10/09 00:18:04;;;;;;;0.45;0.45;;;;;;;15.79;57.97;97429.75;29394;300;64014;-56
2023/10/09 00:18:36;;;;;;;0.40;0.40;;;;;;;15.80;58.10;97428.62;29395;215;63005;-57
2023/10/09 00:19:30;;;;;;;0.40;0.40;;;;;;;15.82;58.17;97440.87;29395;242;63009;-56
2023/10/09 00:20:17;;;;;;;0.40;0.40;;;;;;;15.85;58.10;97437.53;29395;214;63005;-56
2023/10/09 00:20:54;;;;;;;0.50;0.50;;;;;;;15.88;57.61;97436.91;29395;277;63009;-56
2023/10/09 00:21:28;;;;;;;0.40;0.40;;;;;;;15.89;57.80;97433.03;29395;311;63005;-57
2023/10/09 00:22:10;;;;;;;0.50;0.50;;;;;;;15.92;57.79;97437.06;29395;320;63009;-56
2023/10/09 00:22:43;;;;;;;0.50;0.50;;;;;;;15.93;57.82;97434.03;29395;206;63004;-57
2023/10/09 00:23:15;;;;;;;0.50;0.50;;;;;;;15.95;57.57;97439.16;29394;255;64013;-57
2023/10/09 00:23:59;;;;;;;0.50;0.50;;;;;;;15.96;57.66;97438.03;29395;218;63004;-56
2023/10/09 00:24:33;;;;;;;0.40;0.40;;;;;;;15.99;57.45;97440.16;29395;202;63008;-56
2023/10/09 00:25:11;;;;;;;0.50;0.50;;;;;;;16.00;56.93;97428.09;29395;218;63004;-56
2023/10/09 00:26:08;;;;;;;0.50;0.50;;;;;;;16.01;57.14;97430.50;29395;223;63009;-57
2023/10/09 00:26:48;;;;;;;0.50;0.50;;;;;;;16.03;57.59;97439.22;29395;199;63005;-58
2023/10/09 00:27:19;;;;;;;0.47;0.47;;;;;;;16.03;57.29;97436.47;29395;310;63009;-58
2023/10/09 00:27:51;;;;;;;0.40;0.40;;;;;;;16.05;57.22;97434.22;29395;228;63005;-57
2023/10/09 00:28:27;;;;;;;0.40;0.40;;;;;;;16.05;56.61;97431.50;29394;288;64013;-57
2023/10/09 00:28:58;;;;;;;0.40;0.40;;;;;;;16.05;57.18;97431.50;29395;202;63005;-56
2023/10/09 00:29:34;;;;;;;0.43;0.43;;;;;;;16.05;56.93;97436.16;29395;213;63009;-57
2023/10/09 00:30:07;;;;;;;0.40;0.40;;;;;;;16.04;56.78;97429.88;29395;216;63004;-57
2023/10/09 00:30:41;;;;;;;0.40;0.40;;;;;;;16.02;56.92;97425.84;29395;223;63009;-58
2023/10/09 00:31:16;;;;;;;0.40;0.40;;;;;;;16.03;57.10;97438.41;29395;221;63004;-57
2023/10/09 00:33:07;;;;;;;0.40;0.40;;;;;;;15.99;57.20;97438.22;29395;234;63005;-58
2023/10/09 00:33:41;;;;;;;0.40;0.40;;;;;;;15.97;57.11;97435.00;29394;198;64014;-58
2023/10/09 00:34:19;;;;;;;0.40;0.40;;;;;;;15.95;57.42;97433.69;29395;222;63005;-57
2023/10/09 00:34:50;;;;;;;0.40;0.40;;;;;;;15.95;57.21;97434.50;29395;303;63009;-57
2023/10/09 00:35:36;;;;;;;0.40;0.40;;;;;;;15.93;57.54;97434.03;29394;205;64009;-57
2023/10/09 00:36:14;;;;;;;0.50;0.50;;;;;;;15.90;57.50;97426.44;29395;219;63009;-56
2023/10/09 00:36:50;;;;;;;0.47;0.47;;;;;;;15.89;57.75;97430.31;29395;202;63005;-57
2023/10/09 00:37:25;;;;;;;0.40;0.40;;;;;;;15.87;57.82;97434.47;29395;206;63009;-57
2023/10/09 00:38:03;;;;;;;0.40;0.40;;;;;;;15.85;57.87;97428.50;29395;222;63004;-57
2023/10/09 00:38:35;;;;;;;0.40;0.40;;;;;;;15.83;57.70;97422.53;29395;245;63026;-58
2023/10/09 00:39:30;;;;;;;0.40;0.40;;;;;;;15.80;58.15;97423.97;29395;230;63004;-57
2023/10/09 00:40:12;;;;;;;0.40;0.40;;;;;;;15.78;58.28;97420.72;29395;214;63008;-57
2023/10/09 00:40:46;;;;;;;0.40;0.40;;;;;;;15.74;58.43;97426.03;29394;258;64009;-57
2023/10/09 00:41:24;;;;;;;0.50;0.50;;;;;;;15.74;58.44;97425.22;29395;210;63009;-57
2023/10/09 00:41:58;;;;;;;0.40;0.40;;;;;;;15.73;58.71;97429.06;29395;209;63005;-57
2023/10/09 00:42:32;;;;;;;0.40;0.40;;;;;;;15.73;58.77;97431.81;29395;214;63012;-57
2023/10/09 00:43:06;;;;;;;0.50;0.50;;;;;;;15.72;58.85;97427.47;29395;224;63005;-57
2023/10/09 00:43:42;;;;;;;0.50;0.50;;;;;;;15.72;58.79;97421.97;29395;207;63024;-57
2023/10/09 00:44:14;;;;;;;0.40;0.40;;;;;;;15.71;58.70;97432.13;29395;219;63005;-56
2023/10/09 00:44:48;;;;;;;0.45;0.45;;;;;;;15.72;58.64;97424.72;29395;328;63009;-56
2023/10/09 00:45:27;;;;;;;0.50;0.50;;;;;;;15.71;58.15;97415.69;29395;210;63017;-57
2023/10/09 00:46:11;;;;;;;0.50;0.50;;;;;;;15.72;58.41;97430.19;29394;216;64013;-57
2023/10/09 00:46:43;;;;;;;0.50;0.50;;;;;;;15.71;58.48;97420.38;29395;208;63013;-57
2023/10/09 00:47:22;;;;;;;0.40;0.40;;;;;;;15.71;58.49;97423.09;29395;337;63008;-57
2023/10/09 00:47:58;;;;;;;0.40;0.40;;;;;;;15.72;58.41;97427.47;29395;314;63005;-57
2023/10/09 00:48:31;;;;;;;0.50;0.50;;;;;;;15.71;58.58;97414.91;29395;348;63026;-57
2023/10/09 00:49:02;;;;;;;0.50;0.50;;;;;;;15.71;58.42;97417.63;29395;303;63011;-56
2023/10/09 00:49:34;;;;;;;0.50;0.50;;;;;;;15.71;58.42;97420.38;29395;252;63009;-56
2023/10/09 00:51:18;;;;;;;0.50;0.50;;;;;;;15.70;58.17;97413.28;29416;210;64013;-56
2023/10/09 00:51:56;;;;;;;0.50;0.50;;;;;;;15.69;58.31;97422.59;29395;290;63017;-56
2023/10/09 00:52:32;;;;;;;0.50;0.50;;;;;;;15.67;58.28;97413.91;29395;200;63009;-57
2023/10/09 00:53:12;;;;;;;0.40;0.40;;;;;;;15.65;58.31;97416.94;29395;216;63004;-57
2023/10/09 00:53:50;;;;;;;0.50;0.50;;;;;;;15.65;58.60;97416.94;29417;197;63009;-57
2023/10/09 00:54:26;;;;;;;0.40;0.40;;;;;;;15.65;58.38;97410.66;29395;323;63013;-57
2023/10/09 00:55:04;;;;;;;0.50;0.50;;;;;;;15.63;58.11;97407.44;29395;333;63008;-57
2023/10/09 00:55:46;;;;;;;0.50;0.50;;;;;;;15.63;58.39;97412.91;29395;233;63005;-58
2023/10/09 00:56:37;;;;;;;0.50;0.50;;;;;;;15.62;58.51;97411.28;29394;302;64014;-56
2023/10/09 00:57:13;;;;;;;0.50;0.50;;;;;;;15.59;58.71;97406.47;29416;237;64009;-57
2023/10/09 00:57:50;;;;;;;0.40;0.40;;;;;;;15.59;58.59;97407.28;29395;224;63020;-57
2023/10/09 00:58:26;;;;;;;0.40;0.40;;;;;;;15.59;58.71;97411.94;29395;331;63005;-57
2023/10/09 00:59:09;;;;;;;0.45;0.45;;;;;;;15.58;58.67;97410.31;29395;205;63009;-57
2023/10/09 00:59:43;;;;;;;0.40;0.40;;;;;;;15.57;58.71;97411.44;29395;202;63004;-58
2023/10/09 01:00:32;;;;;;;0.45;0.45;;;;;;;15.56;58.78;97410.63;29395;228;63009;-56
2023/10/09 01:01:15;;;;;;;0.50;0.50;;;;;;;15.55;58.15;97409.00;29395;225;63004;-58
2023/10/09 01:01:56;;;;;;;0.40;0.40;;;;;;;15.54;58.69;97403.84;29395;264;63009;-57
2023/10/09 01:02:42;;;;;;;0.50;0.50;;;;;;;15.55;58.61;97413.66;29438;325;126013;-56
2023/10/09 01:03:22;;;;;;;0.40;0.40;;;;;;;15.55;58.61;97413.66;29373;270;63005;-57
2023/10/09 01:03:54;;;;;;;0.47;0.47;;;;;;;15.54;58.68;97414.78;29439;235;63001;-57
2023/10/09 01:04:29;;;;;;;0.47;0.47;;;;;;;15.54;58.76;97414.78;29373;226;63017;-57
2023/10/09 01:05:10;;;;;;;0.50;0.50;;;;;;;15.54;58.74;97414.78;29395;263;63000;-56
2023/10/09 01:06:33;;;;;;;0.40;0.40;;;;;;;15.53;58.86;97408.50;29395;214;63000;-57
2023/10/09 01:07:58;;;;;;;0.40;0.40;;;;;;;15.52;58.94;97411.53;29394;197;64004;-57
2023/10/09 01:08:43;;;;;;;0.40;0.40;;;;;;;15.52;58.88;97411.53;29395;272;63009;-56
2023/10/09 01:09:19;;;;;;;0.40;0.40;;;;;;;15.52;58.68;97406.88;29394;236;64004;-57
2023/10/09 01:09:54;;;;;;;0.50;0.50;;;;;;;15.52;58.60;97400.59;29395;281;63008;-57
2023/10/09 01:10:33;;;;;;;0.50;0.50;;;;;;;15.52;58.23;97404.16;29395;262;63004;-56
2023/10/09 01:11:18;;;;;;;0.40;0.40;;;;;;;15.53;58.42;97402.22;29395;327;63009;-56
2023/10/09 01:12:03;;;;;;;0.50;0.50;;;;;;;15.50;58.58;97408.31;29395;224;63005;-57
2023/10/09 01:12:42;;;;;;;0.50;0.50;;;;;;;15.50;58.66;97403.66;29395;246;63009;-57
2023/10/09 01:13:13;;;;;;;0.50;0.50;;;;;;;15.51;58.43;97407.19;29395;360;63005;-56
2023/10/09 01:14:10;;;;;;;0.50;0.50;;;;;;;15.50;58.33;97400.09;29395;315;63009;-56
2023/10/09 01:14:43;;;;;;;0.50;0.50;;;;;;;15.50;58.35;97405.56;29394;224;64004;-71
2023/10/09 01:15:35;;;;;;;0.50;0.50;;;;;;;15.50;58.20;97402.84;29395;220;63009;-56
2023/10/09 01:16:15;;;;;;;0.50;0.50;;;;;;;15.49;58.31;97407.50;29417;206;63004;-57
2023/10/09 01:16:47;;;;;;;0.50;0.50;;;;;;;15.49;58.28;97401.22;29416;210;64008;-57
2023/10/09 01:17:35;;;;;;;0.40;0.40;;;;;;;15.47;58.08;97403.47;29395;278;63004;-57
2023/10/09 01:18:07;;;;;;;0.50;0.50;;;;;;;15.47;58.48;97406.19;29395;311;63009;-56
2023/10/09 01:18:40;;;;;;;0.50;0.50;;;;;;;15.47;58.24;97400.72;29395;293;63005;-57
2023/10/09 01:19:30;;;;;;;0.50;0.50;;;;;;;15.46;58.55;97401.84;29395;233;63009;-57
2023/10/09 01:20:14;;;;;;;0.43;0.43;;;;;;;15.46;58.21;97391.72;29394;294;64005;-57
2023/10/09 01:20:45;;;;;;;0.40;0.40;;;;;;;15.45;58.26;97390.09;29395;226;63009;-74
2023/10/09 01:21:18;;;;;;;0.50;0.50;;;;;;;15.47;58.39;97395.25;29395;318;63005;-57
2023/10/09 01:21:53;;;;;;;0.40;0.40;;;;;;;15.48;58.37;97405.06;29395;220;63009;-57
2023/10/09 01:22:24;;;;;;;0.40;0.40;;;;;;;15.47;58.41;97398.00;29395;340;63004;-57
2023/10/09 01:22:56;;;;;;;0.40;0.40;;;;;;;15.46;58.65;97401.84;29395;222;63009;-74
2023/10/09 01:24:55;;;;;;;0.43;0.43;;;;;;;15.46;58.56;97396.38;29395;291;63009;-57
2023/10/09 01:25:41;;;;;;;0.40;0.40;;;;;;;15.46;58.57;97401.84;29394;197;64005;-57
2023/10/09 01:26:16;;;;;;;0.50;0.50;;;;;;;15.46;58.67;97401.84;29395;208;63009;-57
2023/10/09 01:26:49;;;;;;;0.40;0.40;;;;;;;15.46;58.45;97401.84;29395;254;63005;-57
2023/10/09 01:27:24;;;;;;;0.40;0.40;;;;;;;15.46;58.55;97399.09;29395;265;63009;-57
2023/10/09 01:27:56;;;;;;;0.40;0.40;;;;;;;15.46;58.31;97397.19;29395;204;63005;-57
2023/10/09 01:28:28;;;;;;;0.40;0.40;;;;;;;15.46;58.45;97399.09;29395;199;63009;-57
2023/10/09 01:29:03;;;;;;;0.40;0.40;;;;;;;15.46;58.38;97393.63;29395;280;63004;-57
2023/10/09 01:29:35;;;;;;;0.43;0.43;;;;;;;15.46;58.41;97390.91;29394;206;64009;-57
2023/10/09 01:30:14;;;;;;;0.40;0.40;;;;;;;15.45;58.33;97401.03;29395;203;63004;-57
2023/10/09 01:30:47;;;;;;;0.40;0.40;;;;;;;15.45;58.64;97398.31;29395;208;63009;-56
2023/10/09 01:31:20;;;;;;;0.50;0.50;;;;;;;15.46;58.45;97401.84;29395;202;63004;-57
2023/10/09 01:31:56;;;;;;;0.40;0.40;;;;;;;15.46;58.48;97401.84;29395;205;63008;-57
2023/10/09 01:32:27;;;;;;;0.40;0.40;;;;;;;15.45;58.40;97394.75;29395;221;63005;-56
2023/10/09 01:33:11;;;;;;;0.50;0.50;;;;;;;15.45;58.56;97390.09;29395;323;63009;-57
2023/10/09 01:33:43;;;;;;;0.40;0.40;;;;;;;15.46;58.45;97385.44;29395;214;63005;-56
2023/10/09 01:34:15;;;;;;;0.40;0.40;;;;;;;15.46;58.58;97401.84;29395;326;63009;-56
2023/10/09 01:34:49;;;;;;;0.40;0.40;;;;;;;15.47;58.38;97384.31;29394;333;64005;-57
2023/10/09 01:35:21;;;;;;;0.40;0.40;;;;;;;15.47;58.63;97392.53;29395;235;63009;-57
2023/10/09 01:35:58;;;;;;;0.50;0.50;;;;;;;15.49;58.63;97384.81;29394;359;64005;-57
2023/10/09 01:36:32;;;;;;;0.50;0.50;;;;;;;15.50;58.45;97389.16;29395;235;63009;-57
2023/10/09 01:37:15;;;;;;;0.50;0.50;;;;;;;15.51;58.58;97385.31;29395;333;63009;-57
2023/10/09 01:37:50;;;;;;;0.50;0.50;;;;;;;15.53;58.33;97383.06;29395;208;63009;-57
2023/10/09 01:38:39;;;;;;;0.40;0.40;;;;;;;15.54;57.86;97381.94;29395;207;63004;-57
2023/10/09 01:40:37;;;;;;;0.40;0.40;;;;;;;15.58;57.92;97383.78;29394;329;64005;-57
2023/10/09 01:41:19;;;;;;;0.45;0.45;;;;;;;15.61;57.74;97388.59;29395;262;63009;-56
2023/10/09 01:42:00;;;;;;;0.50;0.50;;;;;;;15.64;57.52;97385.25;29395;243;63005;-57
2023/10/09 01:42:34;;;;;;;0.40;0.40;;;;;;;15.66;57.25;97379.47;29417;332;63009;-57
2023/10/09 01:43:09;;;;;;;0.40;0.40;;;;;;;15.69;57.38;97384.31;29395;204;63005;-57
2023/10/09 01:43:44;;;;;;;0.40;0.40;;;;;;;15.72;56.99;97386.41;29395;206;63009;-57
2023/10/09 01:44:16;;;;;;;0.40;0.40;;;;;;;15.73;56.74;97374.34;29395;227;63004;-57
2023/10/09 01:44:48;;;;;;;0.50;0.50;;;;;;;15.74;56.88;97378.69;29395;226;63009;-57
2023/10/09 01:45:29;;;;;;;0.40;0.40;;;;;;;15.78;56.72;97381.63;29394;208;64004;-57
2023/10/09 01:46:01;;;;;;;;;;;;;;;15.80;56.83;97379.37;29996;983;6004;-57
2023/10/09 01:46:33;;;;;;;0.50;0.50;;;;;;;15.80;56.66;97377.44;29422;218;63009;-57
2023/10/09 01:47:13;;;;;;;0.40;0.40;;;;;;;15.81;56.60;97381.81;29395;213;63004;-57
2023/10/09 01:47:56;;;;;;;0.40;0.40;;;;;;;15.82;56.60;97377.94;29395;235;63017;-57
2023/10/09 01:48:28;;;;;;;0.50;0.50;;;;;;;15.84;56.49;97383.09;29394;338;64005;-57
2023/10/09 01:49:08;;;;;;;0.47;0.47;;;;;;;15.84;56.48;97375.72;29395;316;63009;-57
2023/10/09 01:49:43;;;;;;;0.50;0.50;;;;;;;15.84;56.88;97386.66;29395;222;63005;-57
2023/10/09 01:50:35;;;;;;;0.50;0.50;;;;;;;15.85;56.57;97371.03;29395;263;63009;-57
2023/10/09 01:51:13;;;;;;;0.50;0.50;;;;;;;15.86;56.62;97378.13;29417;197;63005;-57
2023/10/09 01:51:44;;;;;;;0.40;0.40;;;;;;;15.85;56.75;97373.78;29395;223;63009;-56
2023/10/09 01:52:17;;;;;;;0.40;0.40;;;;;;;15.85;56.73;97374.59;29395;295;63004;-56
2023/10/09 01:52:51;;;;;;;0.50;0.50;;;;;;;15.86;56.39;97365.25;29395;208;63009;-58
2023/10/09 01:53:27;;;;;;;0.40;0.40;;;;;;;15.86;56.66;97368.00;29396;324;63004;-57
2023/10/09 01:53:59;;;;;;;0.50;0.50;;;;;;;15.86;56.52;97368.00;29395;199;64009;-57
2023/10/09 01:54:39;;;;;;;0.50;0.50;;;;;;;15.87;56.61;97366.06;29396;198;63007;-68
2023/10/09 01:55:28;;;;;;;0.40;0.40;;;;;;;15.88;56.24;97365.75;29418;293;63009;-57
2023/10/09 01:56:14;;;;;;;0.50;0.50;;;;;;;15.88;56.77;97368.47;29396;202;63005;-58
2023/10/09 01:56:46;;;;;;;0.50;0.50;;;;;;;15.90;56.63;97368.16;29396;224;63009;-56
2023/10/09 01:57:22;;;;;;;0.40;0.40;;;;;;;15.89;56.52;97366.56;29396;310;63009;-57
2023/10/09 01:57:54;;;;;;;0.50;0.50;;;;;;;15.91;56.59;97359.66;29396;222;63023;-57
2023/10/09 01:58:27;;;;;;;0.50;0.50;;;;;;;15.91;56.55;97367.06;29396;311;63005;-57
2023/10/09 01:59:05;;;;;;;0.50;0.50;;;;;;;15.91;56.65;97358.84;29395;278;64001;-57
2023/10/09 01:59:43;;;;;;;0.40;0.40;;;;;;;15.91;56.62;97365.13;29396;262;63018;-58
2023/10/09 02:00:22;;;;;;;0.40;0.40;;;;;;;15.92;56.31;97361.25;29396;278;63009;-69
2023/10/09 02:00:56;;;;;;;0.40;0.40;;;;;;;15.93;56.51;97362.06;29395;210;63004;-57
2023/10/09 02:01:27;;;;;;;0.40;0.40;;;;;;;15.93;56.26;97362.88;29396;206;63009;-56
2023/10/09 02:02:02;;;;;;;0.40;0.40;;;;;;;15.93;56.33;97362.88;29396;199;63004;-57
2023/10/09 02:02:33;;;;;;;0.40;0.40;;;;;;;15.93;56.28;97360.12;29396;223;63009;-56
2023/10/09 02:03:11;;;;;;;0.40;0.40;;;;;;;15.94;56.33;97358.97;29396;238;63005;-57
2023/10/09 02:03:44;;;;;;;0.40;0.40;;;;;;;15.95;56.49;97357.06;29396;310;63009;-58
2023/10/09 02:04:20;;;;;;;0.40;0.40;;;;;;;15.95;56.50;97360.59;29395;211;64005;-56
2023/10/09 02:05:26;;;;;;;0.40;0.40;;;;;;;15.95;56.50;97357.88;29396;245;63009;-58
2023/10/09 02:05:59;;;;;;;0.50;0.50;;;;;;;15.97;56.46;97361.09;29396;280;63005;-56
2023/10/09 02:06:32;;;;;;;0.40;0.40;;;;;;;15.98;56.17;97356.44;29396;239;63009;-56
2023/10/09 02:07:07;;;;;;;0.40;0.40;;;;;;;15.99;55.86;97356.13;29396;202;63009;-57
2023/10/09 02:07:51;;;;;;;0.50;0.50;;;;;;;15.99;56.27;97356.13;29396;266;63009;-56
2023/10/09 02:08:26;;;;;;;0.40;0.40;;;;;;;16.00;56.14;97355.00;29396;286;63004;-57
2023/10/09 02:08:59;;;;;;;0.50;0.50;;;;;;;16.01;55.84;97348.41;29396;196;63009;-57
2023/10/09 02:09:31;;;;;;;0.50;0.50;;;;;;;16.01;56.08;97351.13;29395;223;64004;-57
2023/10/09 02:10:03;;;;;;;0.50;0.50;;;;;;;16.02;55.86;97352.75;29396;238;63009;-58
2023/10/09 02:10:37;;;;;;;0.50;0.50;;;;;;;16.02;55.93;97351.94;29396;261;63005;-57
2023/10/09 02:11:14;;;;;;;0.40;0.40;;;;;;;16.01;56.14;97356.59;29396;217;63009;-56
2023/10/09 02:11:51;;;;;;;0.50;0.50;;;;;;;16.02;56.18;97358.22;29396;228;63005;-70
2023/10/09 02:12:23;;;;;;;0.50;0.50;;;;;;;16.02;56.07;97350.00;29396;292;63009;-67
2023/10/09 02:13:11;;;;;;;0.40;0.40;;;;;;;16.02;56.18;97352.75;29396;205;63005;-58
2023/10/09 02:13:42;;;;;;;0.50;0.50;;;;;;;16.03;55.98;97350.81;29396;269;63009;-58
2023/10/09 02:14:19;;;;;;;0.40;0.40;;;;;;;16.03;56.18;97351.63;29396;241;63004;-57
2023/10/09 02:14:55;;;;;;;0.40;0.40;;;;;;;16.04;56.12;97353.25;29395;203;64009;-58
2023/10/09 02:16:41;;;;;;;0.40;0.40;;;;;;;16.06;55.76;97345.50;29396;206;63009;-57
2023/10/09 02:17:19;;;;;;;0.40;0.40;;;;;;;16.06;55.65;97344.72;29396;227;63004;-57
2023/10/09 02:18:00;;;;;;;0.40;0.40;;;;;;;16.06;55.73;97342.78;29396;199;63009;-56
2023/10/09 02:19:30;;;;;;;0.40;0.40;;;;;;;16.06;55.78;97348.25;29395;356;64009;-57
2023/10/09 02:20:16;;;;;;;0.50;0.50;;;;;;;16.05;55.78;97343.91;29417;303;64005;-57
2023/10/09 02:21:53;;;;;;;0.50;0.50;;;;;;;16.05;55.94;97343.09;29396;206;63004;-57
2023/10/09 02:22:26;;;;;;;0.40;0.40;;;;;;;16.05;55.88;97338.44;29396;208;63009;-57
2023/10/09 02:22:57;;;;;;;0.40;0.40;;;;;;;16.04;55.86;97350.50;29396;237;63004;-69
2023/10/09 02:23:40;;;;;;;0.50;0.50;;;;;;;16.02;55.57;97341.78;29396;216;63008;-69
2023/10/09 02:24:26;;;;;;;0.40;0.40;;;;;;;16.02;55.98;97341.78;29396;232;63004;-57
2023/10/09 02:24:57;;;;;;;0.50;0.50;;;;;;;16.01;56.25;97345.66;29395;202;64008;-58
2023/10/09 02:25:34;;;;;;;0.50;0.50;;;;;;;16.01;56.15;97345.66;29396;199;63017;-57
2023/10/09 02:26:06;;;;;;;0.50;0.50;;;;;;;16.01;55.93;97342.91;29396;234;63009;-57
2023/10/09 02:27:06;;;;;;;0.45;0.45;;;;;;;16.00;56.29;97348.72;29396;220;63005;-57
2023/10/09 02:27:44;;;;;;;0.40;0.40;;;;;;;16.00;56.29;97346.78;29396;198;63009;-57
2023/10/09 02:28:18;;;;;;;0.50;0.50;;;;;;;16.00;56.43;97345.97;29396;216;63005;-57
2023/10/09 02:28:58;;;;;;;0.50;0.50;;;;;;;15.99;56.15;97338.88;29396;214;63009;-56
2023/10/09 02:29:35;;;;;;;0.50;0.50;;;;;;;15.99;56.24;97345.16;29396;205;63004;-57
2023/10/09 02:30:19;;;;;;;0.40;0.40;;;;;;;15.98;56.14;97349.03;29395;208;64009;-57
2023/10/09 02:30:51;;;;;;;0.50;0.50;;;;;;;15.97;56.25;97352.88;29396;240;63004;-56
2023/10/09 02:31:23;;;;;;;0.50;0.50;;;;;;;15.97;56.25;97341.13;29396;198;63008;-57
2023/10/09 02:32:01;;;;;;;0.40;0.40;;;;;;;15.96;56.28;97351.28;29396;219;63008;-57
2023/10/09 02:32:33;;;;;;;0.40;0.40;;;;;;;15.96;56.23;97351.28;29396;202;63009;-57
2023/10/09 02:33:09;;;;;;;0.40;0.40;;;;;;;15.96;56.25;97345.78;29396;197;63005;-57
2023/10/09 02:33:40;;;;;;;0.40;0.40;;;;;;;15.94;56.28;97345.31;29396;198;63009;-57
2023/10/09 02:34:15;;;;;;;0.40;0.40;;;;;;;15.93;56.46;97356.59;29395;238;63996;-57
2023/10/09 02:34:47;;;;;;;0.40;0.40;;;;;;;15.92;56.51;97344.84;29396;303;63024;-57
2023/10/09 02:35:28;;;;;;;0.40;0.40;;;;;;;15.93;56.52;97351.13;29396;196;63005;-56
2023/10/09 02:36:05;;;;;;;;;;;;;;;15.92;56.15;97344.84;29997;983;6004;-57
2023/10/09 02:36:43;;;;;;;0.40;0.40;;;;;;;15.91;56.56;97353.38;29401;216;63009;-57
2023/10/09 02:37:23;;;;;;;0.40;0.40;;;;;;;15.88;56.06;97341.13;29397;238;63004;-56
2023/10/09 02:37:54;;;;;;;0.40;0.40;;;;;;;15.88;56.41;97349.31;29397;196;63009;-58
2023/10/09 02:38:26;;;;;;;0.40;0.40;;;;;;;15.87;56.40;97347.72;29397;211;63004;-56
2023/10/09 02:38:58;;;;;;;0.40;0.40;;;;;;;15.88;56.71;97359.47;29397;227;63008;-70
2023/10/09 02:39:36;;;;;;;0.40;0.40;;;;;;;15.86;56.35;97351.56;29396;197;64005;-57
2023/10/09 02:40:08;;;;;;;0.40;0.40;;;;;;;15.85;56.58;97347.22;29397;213;63009;-57
2023/10/09 02:41:34;;;;;;;0.40;0.40;;;;;;;15.83;56.63;97346.72;29397;199;63009;-57
2023/10/09 02:43:03;;;;;;;0.40;0.40;;;;;;;15.79;57.07;97353.94;29397;226;63009;-58
2023/10/09 02:43:48;;;;;;;0.40;0.40;;;;;;;15.78;56.94;97344.12;29396;237;64005;-56
2023/10/09 02:44:24;;;;;;;0.40;0.40;;;;;;;15.78;57.05;97346.88;29397;293;63009;-56
2023/10/09 02:44:58;;;;;;;0.40;0.40;;;;;;;15.79;56.86;97347.66;29397;320;63004;-58
2023/10/09 02:45:35;;;;;;;0.40;0.40;;;;;;;15.78;56.96;97346.88;29397;205;63009;-58
2023/10/09 02:46:19;;;;;;;0.40;0.40;;;;;;;15.78;56.99;97354.25;29397;209;63004;-57
2023/10/09 02:46:51;;;;;;;0.40;0.40;;;;;;;15.78;57.12;97348.78;29397;210;63008;-57
2023/10/09 02:47:25;;;;;;;0.40;0.40;;;;;;;15.78;57.03;97346.88;29397;280;63005;-71
2023/10/09 02:47:59;;;;;;;0.40;0.40;;;;;;;15.78;57.02;97349.59;29397;198;63009;-57
2023/10/09 02:48:34;;;;;;;0.40;0.40;;;;;;;15.78;57.03;97348.78;29397;226;63005;-57
2023/10/09 02:49:09;;;;;;;0.40;0.40;;;;;;;15.77;56.79;97347.97;29396;230;64009;-57
2023/10/09 02:49:40;;;;;;;0.40;0.40;;;;;;;15.78;56.93;97348.78;29397;235;63005;-57
2023/10/09 02:50:19;;;;;;;0.40;0.40;;;;;;;15.78;57.04;97357.00;29396;339;64009;-56
2023/10/09 02:50:51;;;;;;;0.40;0.40;;;;;;;15.77;57.14;97353.44;29397;282;63005;-57
2023/10/09 02:52:17;;;;;;;0.40;0.40;;;;;;;15.77;57.05;97350.72;29396;206;63004;-57
2023/10/09 02:52:59;;;;;;;0.40;0.40;;;;;;;15.77;57.06;97347.97;29396;204;63026;-57
2023/10/09 02:53:34;;;;;;;0.40;0.40;;;;;;;15.77;56.94;97349.91;29418;344;63004;-57
2023/10/09 02:55:24;;;;;;;0.40;0.40;;;;;;;15.76;57.23;97351.84;29395;271;64015;-57
2023/10/09 02:56:13;;;;;;;0.40;0.40;;;;;;;15.76;57.10;97346.38;29395;265;64009;-57
2023/10/09 02:56:56;;;;;;;0.45;0.45;;;;;;;15.75;57.23;97353.78;29396;242;63005;-57
2023/10/09 02:57:36;;;;;;;0.40;0.40;;;;;;;15.74;57.17;97359.56;29396;347;63009;-56
2023/10/09 02:58:20;;;;;;;0.40;0.40;;;;;;;15.74;56.99;97351.34;29396;212;63005;-57
2023/10/09 02:58:52;;;;;;;0.40;0.40;;;;;;;15.72;57.17;97351.66;29396;197;63009;-58
2023/10/09 02:59:24;;;;;;;0.40;0.40;;;;;;;15.72;57.17;97350.84;29396;208;63004;-57
2023/10/09 02:59:55;;;;;;;0.50;0.50;;;;;;;15.72;57.30;97356.31;29396;203;63009;-57
2023/10/09 03:00:31;;;;;;;0.40;0.40;;;;;;;15.71;57.15;97354.72;29396;374;63004;-57
2023/10/09 03:01:02;;;;;;;0.40;0.40;;;;;;;15.71;57.03;97355.50;29395;354;64009;-57
2023/10/09 03:01:39;;;;;;;0.40;0.40;;;;;;;15.71;57.38;97354.72;29396;234;63004;-57
2023/10/09 03:02:11;;;;;;;0.40;0.40;;;;;;;15.70;57.19;97351.16;29396;221;63009;-56
2023/10/09 03:02:42;;;;;;;0.40;0.40;;;;;;;15.69;57.26;97351.47;29397;229;63005;-57
2023/10/09 03:03:16;;;;;;;0.40;0.40;;;;;;;15.69;57.39;97351.47;29396;219;63009;-57
2023/10/09 03:03:48;;;;;;;0.40;0.40;;;;;;;15.68;57.32;97355.34;29396;286;63005;-57
2023/10/09 03:04:23;;;;;;;0.40;0.40;;;;;;;15.69;57.51;97351.47;29396;209;63009;-57
2023/10/09 03:04:55;;;;;;;0.40;0.40;;;;;;;15.69;57.56;97351.47;29396;317;63005;-57
2023/10/09 03:05:29;;;;;;;0.40;0.40;;;;;;;15.68;57.43;97347.94;29396;221;63009;-56
2023/10/09 03:06:01;;;;;;;0.40;0.40;;;;;;;15.69;57.44;97348.75;29397;311;63005;-69
2023/10/09 03:06:43;;;;;;;0.40;0.40;;;;;;;15.69;57.33;97346.00;29395;202;64009;-57
2023/10/09 03:07:14;;;;;;;0.40;0.40;;;;;;;15.69;57.20;97346.00;29396;197;63018;-57
2023/10/09 03:07:45;;;;;;;0.40;0.40;;;;;;;15.69;57.25;97348.75;29396;207;63009;-57
2023/10/09 03:08:19;;;;;;;0.40;0.40;;;;;;;15.68;57.41;97344.38;29396;276;63004;-57
2023/10/09 03:08:50;;;;;;;0.40;0.40;;;;;;;15.69;57.25;97346.00;29396;205;63008;-57
2023/10/09 03:09:26;;;;;;;0.40;0.40;;;;;;;15.70;57.19;97344.88;29396;271;63004;-57
2023/10/09 03:09:57;;;;;;;0.45;0.45;;;;;;;15.70;57.25;97342.16;29396;212;63016;-57
2023/10/09 03:10:29;;;;;;;0.40;0.40;;;;;;;15.70;57.08;97347.63;29396;284;63005;-56
2023/10/09 03:11:00;;;;;;;0.40;0.40;;;;;;;15.69;56.95;97346.00;29396;226;63009;-58